sensor_id;sensor_type;location;lat;lon;timestamp;pressure;altitude;pressure_sealevel;temperature;humidity
16355;BME280;8287;51.644;8.494;2022-08-19T00:00:33;100109.31;;;22.38;72.00
16355;BME280;8287;51.644;8.494;2022-08-19T00:03:00;100110.50;;;22.37;72.19
16355;BME280;8287;51.644;8.494;2022-08-19T00:05:27;100117.44;;;22.38;72.14
16355;BME280;8287;51.644;8.494;2022-08-19T00:07:53;100127.44;;;22.38;72.34
16355;BME280;8287;51.644;8.494;2022-08-19T00:10:22;100118.97;;;22.36;72.00
16355;BME280;8287;51.644;8.494;2022-08-19T00:12:49;100123.63;;;22.42;71.38
16355;BME280;8287;51.644;8.494;2022-08-19T00:15:18;100119.78;;;22.43;71.78
16355;BME280;8287;51.644;8.494;2022-08-19T00:17:46;100118.25;;;22.42;71.49
16355;BME280;8287;51.644;8.494;2022-08-19T00:20:16;100117.44;;;22.42;71.35
16355;BME280;8287;51.644;8.494;2022-08-19T00:22:43;100118.25;;;22.42;71.32
16355;BME280;8287;51.644;8.494;2022-08-19T00:25:10;100113.56;;;22.39;71.21
16355;BME280;8287;51.644;8.494;2022-08-19T00:27:38;100118.59;;;22.37;71.47
16355;BME280;8287;51.644;8.494;2022-08-19T00:30:07;100119.75;;;22.29;71.83
16355;BME280;8287;51.644;8.494;2022-08-19T00:32:35;100124.41;;;22.25;71.99
16355;BME280;8287;51.644;8.494;2022-08-19T00:35:03;100125.94;;;22.19;72.92
16355;BME280;8287;51.644;8.494;2022-08-19T00:37:30;100115.13;;;22.19;72.80
16355;BME280;8287;51.644;8.494;2022-08-19T00:39:58;100109.34;;;22.17;72.62
16355;BME280;8287;51.644;8.494;2022-08-19T00:42:25;100112.81;;;22.18;72.26
16355;BME280;8287;51.644;8.494;2022-08-19T00:44:54;100125.16;;;22.15;72.18
16355;BME280;8287;51.644;8.494;2022-08-19T00:47:21;100119.75;;;22.05;73.06
16355;BME280;8287;51.644;8.494;2022-08-19T00:49:50;100115.91;;;22.06;73.11
16355;BME280;8287;51.644;8.494;2022-08-19T00:52:20;100118.97;;;22.08;72.90
16355;BME280;8287;51.644;8.494;2022-08-19T00:54:48;100110.50;;;22.06;72.77
16355;BME280;8287;51.644;8.494;2022-08-19T00:57:18;100108.19;;;22.04;72.74
16355;BME280;8287;51.644;8.494;2022-08-19T00:59:52;100103.16;;;22.06;72.17
16355;BME280;8287;51.644;8.494;2022-08-19T01:02:22;100102.41;;;22.06;72.25
16355;BME280;8287;51.644;8.494;2022-08-19T01:04:49;100103.16;;;22.03;71.93
16355;BME280;8287;51.644;8.494;2022-08-19T01:07:15;100097.00;;;21.95;72.98
16355;BME280;8287;51.644;8.494;2022-08-19T01:09:42;100092.38;;;21.92;73.25
16355;BME280;8287;51.644;8.494;2022-08-19T01:12:09;100091.59;;;21.81;74.16
16355;BME280;8287;51.644;8.494;2022-08-19T01:14:36;100088.88;;;21.74;74.65
16355;BME280;8287;51.644;8.494;2022-08-19T01:17:06;100094.69;;;21.76;74.48
16355;BME280;8287;51.644;8.494;2022-08-19T01:19:37;100092.75;;;21.77;73.95
16355;BME280;8287;51.644;8.494;2022-08-19T01:22:08;100090.84;;;21.77;73.58
16355;BME280;8287;51.644;8.494;2022-08-19T01:24:37;100078.88;;;21.78;73.36
16355;BME280;8287;51.644;8.494;2022-08-19T01:27:05;100075.81;;;21.76;73.96
16355;BME280;8287;51.644;8.494;2022-08-19T01:29:33;100071.94;;;21.74;73.84
16355;BME280;8287;51.644;8.494;2022-08-19T01:32:03;100069.63;;;21.69;73.72
16355;BME280;8287;51.644;8.494;2022-08-19T01:34:30;100075.75;;;21.62;74.39
16355;BME280;8287;51.644;8.494;2022-08-19T01:37:00;100072.66;;;21.53;74.59
16355;BME280;8287;51.644;8.494;2022-08-19T01:39:27;100077.28;;;21.46;75.35
16355;BME280;8287;51.644;8.494;2022-08-19T01:41:56;100066.88;;;21.51;74.39
16355;BME280;8287;51.644;8.494;2022-08-19T01:44:22;100061.06;;;21.49;74.43
16355;BME280;8287;51.644;8.494;2022-08-19T01:46:51;100069.94;;;21.50;74.37
16355;BME280;8287;51.644;8.494;2022-08-19T01:49:21;100076.88;;;21.47;74.72
16355;BME280;8287;51.644;8.494;2022-08-19T01:51:48;100075.34;;;21.46;74.35
16355;BME280;8287;51.644;8.494;2022-08-19T01:54:17;100069.53;;;21.41;74.56
16355;BME280;8287;51.644;8.494;2022-08-19T01:56:44;100068.75;;;21.40;74.08
16355;BME280;8287;51.644;8.494;2022-08-19T01:59:16;100074.16;;;21.37;74.73
16355;BME280;8287;51.644;8.494;2022-08-19T02:01:45;100073.72;;;21.24;75.30
16355;BME280;8287;51.644;8.494;2022-08-19T02:04:12;100077.56;;;21.23;75.31
16355;BME280;8287;51.644;8.494;2022-08-19T02:06:38;100073.72;;;21.24;75.48
16355;BME280;8287;51.644;8.494;2022-08-19T02:09:07;100070.28;;;21.24;75.38
16355;BME280;8287;51.644;8.494;2022-08-19T02:11:35;100063.34;;;21.19;76.14
16355;BME280;8287;51.644;8.494;2022-08-19T02:14:05;100052.16;;;21.24;74.60
16355;BME280;8287;51.644;8.494;2022-08-19T02:16:34;100059.88;;;21.22;75.27
16355;BME280;8287;51.644;8.494;2022-08-19T02:19:02;100057.16;;;21.15;75.51
16355;BME280;8287;51.644;8.494;2022-08-19T02:21:29;100056.38;;;21.11;76.06
16355;BME280;8287;51.644;8.494;2022-08-19T02:23:56;100059.06;;;21.11;76.23
16355;BME280;8287;51.644;8.494;2022-08-19T02:26:23;100070.22;;;21.13;76.13
16355;BME280;8287;51.644;8.494;2022-08-19T02:28:52;100069.84;;;21.11;76.17
16355;BME280;8287;51.644;8.494;2022-08-19T02:31:21;100063.66;;;21.07;75.60
16355;BME280;8287;51.644;8.494;2022-08-19T02:33:51;100072.94;;;21.13;75.63
16355;BME280;8287;51.644;8.494;2022-08-19T02:36:18;100066.78;;;21.13;75.35
16355;BME280;8287;51.644;8.494;2022-08-19T02:38:45;100065.22;;;21.08;76.33
16355;BME280;8287;51.644;8.494;2022-08-19T02:41:13;100065.19;;;21.01;78.01
16355;BME280;8287;51.644;8.494;2022-08-19T02:43:41;100063.28;;;21.05;77.24
16355;BME280;8287;51.644;8.494;2022-08-19T02:46:13;100060.22;;;21.07;77.29
16355;BME280;8287;51.644;8.494;2022-08-19T02:48:40;100046.38;;;21.08;77.15
16355;BME280;8287;51.644;8.494;2022-08-19T02:51:08;100053.28;;;21.09;76.63
16355;BME280;8287;51.644;8.494;2022-08-19T02:53:34;100054.44;;;21.08;76.39
16355;BME280;8287;51.644;8.494;2022-08-19T02:56:06;100069.47;;;21.09;77.16
16355;BME280;8287;51.644;8.494;2022-08-19T02:58:32;100074.84;;;21.06;77.46
16355;BME280;8287;51.644;8.494;2022-08-19T03:00:59;100077.16;;;21.04;77.65
16355;BME280;8287;51.644;8.494;2022-08-19T03:03:26;100079.44;;;21.02;76.86
16355;BME280;8287;51.644;8.494;2022-08-19T03:06:03;100072.50;;;21.01;75.94
16355;BME280;8287;51.644;8.494;2022-08-19T03:08:31;100072.13;;;21.02;76.31
16355;BME280;8287;51.644;8.494;2022-08-19T03:10:58;100066.34;;;21.00;76.55
16355;BME280;8287;51.644;8.494;2022-08-19T03:13:24;100071.72;;;20.97;76.76
16355;BME280;8287;51.644;8.494;2022-08-19T03:15:51;100078.63;;;20.94;77.05
16355;BME280;8287;51.644;8.494;2022-08-19T03:18:18;100075.16;;;20.87;77.27
16355;BME280;8287;51.644;8.494;2022-08-19T03:20:46;100070.88;;;20.86;77.50
16355;BME280;8287;51.644;8.494;2022-08-19T03:23:14;100073.16;;;20.80;77.29
16355;BME280;8287;51.644;8.494;2022-08-19T03:25:45;100083.19;;;20.83;77.25
16355;BME280;8287;51.644;8.494;2022-08-19T03:28:14;100082.38;;;20.79;76.47
16355;BME280;8287;51.644;8.494;2022-08-19T03:30:42;100076.59;;;20.77;76.46
16355;BME280;8287;51.644;8.494;2022-08-19T03:33:10;100079.66;;;20.72;77.35
16355;BME280;8287;51.644;8.494;2022-08-19T03:35:38;100086.94;;;20.68;77.29
16355;BME280;8287;51.644;8.494;2022-08-19T03:38:05;100088.06;;;20.64;77.95
16355;BME280;8287;51.644;8.494;2022-08-19T03:40:36;100074.59;;;20.60;77.88
16355;BME280;8287;51.644;8.494;2022-08-19T03:43:04;100076.13;;;20.61;77.59
16355;BME280;8287;51.644;8.494;2022-08-19T03:45:31;100082.28;;;20.58;78.15
16355;BME280;8287;51.644;8.494;2022-08-19T03:47:57;100096.84;;;20.50;78.81
16355;BME280;8287;51.644;8.494;2022-08-19T03:50:24;100093.38;;;20.50;78.63
16355;BME280;8287;51.644;8.494;2022-08-19T03:52:51;100094.53;;;20.49;78.56
16355;BME280;8287;51.644;8.494;2022-08-19T03:55:18;100091.44;;;20.47;78.81
16355;BME280;8287;51.644;8.494;2022-08-19T03:57:45;100086.78;;;20.44;78.65
16355;BME280;8287;51.644;8.494;2022-08-19T04:00:15;100090.63;;;20.43;78.09
16355;BME280;8287;51.644;8.494;2022-08-19T04:02:42;100100.19;;;20.34;78.83
16355;BME280;8287;51.644;8.494;2022-08-19T04:05:09;100105.13;;;20.28;79.41
16355;BME280;8287;51.644;8.494;2022-08-19T04:07:36;100110.94;;;20.30;79.04
16355;BME280;8287;51.644;8.494;2022-08-19T04:10:03;100109.00;;;20.31;78.72
16355;BME280;8287;51.644;8.494;2022-08-19T04:12:30;100104.38;;;20.28;78.64
16355;BME280;8287;51.644;8.494;2022-08-19T04:14:56;100102.06;;;20.30;78.81
16355;BME280;8287;51.644;8.494;2022-08-19T04:17:24;100118.59;;;20.32;78.30
16355;BME280;8287;51.644;8.494;2022-08-19T04:19:51;100113.22;;;20.32;77.85
16355;BME280;8287;51.644;8.494;2022-08-19T04:22:18;100105.94;;;20.32;77.74
16355;BME280;8287;51.644;8.494;2022-08-19T04:24:44;100111.28;;;20.29;78.83
16355;BME280;8287;51.644;8.494;2022-08-19T04:27:11;100115.50;;;20.26;79.07
16355;BME280;8287;51.644;8.494;2022-08-19T04:29:38;100112.84;;;20.30;78.05
16355;BME280;8287;51.644;8.494;2022-08-19T04:32:05;100111.25;;;20.25;78.77
16355;BME280;8287;51.644;8.494;2022-08-19T04:34:33;100113.53;;;20.20;79.11
16355;BME280;8287;51.644;8.494;2022-08-19T04:37:00;100117.75;;;20.21;79.36
16355;BME280;8287;51.644;8.494;2022-08-19T04:39:28;100109.63;;;20.14;79.54
16355;BME280;8287;51.644;8.494;2022-08-19T04:42:09;100109.28;;;20.15;79.44
16355;BME280;8287;51.644;8.494;2022-08-19T04:44:54;100111.94;;;20.12;79.54
16355;BME280;8287;51.644;8.494;2022-08-19T04:47:20;100112.72;;;20.16;78.86
16355;BME280;8287;51.644;8.494;2022-08-19T04:49:49;100116.97;;;20.17;79.20
16355;BME280;8287;51.644;8.494;2022-08-19T04:52:15;100115.06;;;20.21;79.16
16355;BME280;8287;51.644;8.494;2022-08-19T04:54:42;100109.66;;;20.17;79.70
16355;BME280;8287;51.644;8.494;2022-08-19T04:57:09;100115.44;;;20.19;79.40
16355;BME280;8287;51.644;8.494;2022-08-19T04:59:36;100113.97;;;20.25;79.19
16355;BME280;8287;51.644;8.494;2022-08-19T05:02:04;100120.47;;;20.21;79.64
16355;BME280;8287;51.644;8.494;2022-08-19T05:04:30;100125.09;;;20.20;79.31
16355;BME280;8287;51.644;8.494;2022-08-19T05:06:59;100121.59;;;20.20;79.00
16355;BME280;8287;51.644;8.494;2022-08-19T05:09:27;100118.09;;;20.16;79.27
16355;BME280;8287;51.644;8.494;2022-08-19T05:11:53;100113.50;;;20.16;79.19
16355;BME280;8287;51.644;8.494;2022-08-19T05:14:20;100118.91;;;20.20;78.72
16355;BME280;8287;51.644;8.494;2022-08-19T05:16:47;100117.34;;;20.15;80.15
16355;BME280;8287;51.644;8.494;2022-08-19T05:19:13;100115.00;;;20.14;80.63
16355;BME280;8287;51.644;8.494;2022-08-19T05:21:59;100112.75;;;20.19;81.41
16355;BME280;8287;51.644;8.494;2022-08-19T05:24:43;100115.81;;;20.18;81.52
16355;BME280;8287;51.644;8.494;2022-08-19T05:27:10;100118.97;;;20.27;80.89
16355;BME280;8287;51.644;8.494;2022-08-19T05:29:36;100117.06;;;20.31;80.80
16355;BME280;8287;51.644;8.494;2022-08-19T05:32:05;100114.44;;;20.38;80.86
16355;BME280;8287;51.644;8.494;2022-08-19T05:34:34;100105.59;;;20.40;80.41
16355;BME280;8287;51.644;8.494;2022-08-19T05:37:03;100110.31;;;20.50;80.00
16355;BME280;8287;51.644;8.494;2022-08-19T05:39:32;100107.63;;;20.57;79.85
16355;BME280;8287;51.644;8.494;2022-08-19T05:42:02;100106.06;;;20.49;80.96
16355;BME280;8287;51.644;8.494;2022-08-19T05:44:31;100096.84;;;20.50;81.44
16355;BME280;8287;51.644;8.494;2022-08-19T05:46:59;100092.28;;;20.61;80.14
16355;BME280;8287;51.644;8.494;2022-08-19T05:49:27;100096.19;;;20.67;80.33
16355;BME280;8287;51.644;8.494;2022-08-19T05:51:54;100100.47;;;20.75;80.16
16355;BME280;8287;51.644;8.494;2022-08-19T05:54:22;100111.63;;;20.81;80.22
16355;BME280;8287;51.644;8.494;2022-08-19T05:56:51;100109.34;;;20.83;80.45
16355;BME280;8287;51.644;8.494;2022-08-19T05:59:18;100108.63;;;20.89;80.93
16355;BME280;8287;51.644;8.494;2022-08-19T06:01:48;100107.13;;;20.95;80.37
16355;BME280;8287;51.644;8.494;2022-08-19T06:04:17;100103.66;;;20.98;80.99
16355;BME280;8287;51.644;8.494;2022-08-19T06:06:44;100103.31;;;21.03;81.17
16355;BME280;8287;51.644;8.494;2022-08-19T06:09:12;100104.50;;;21.09;81.46
16355;BME280;8287;51.644;8.494;2022-08-19T06:11:41;100105.66;;;21.08;81.91
16355;BME280;8287;51.644;8.494;2022-08-19T06:14:11;100111.03;;;21.15;81.59
16355;BME280;8287;51.644;8.494;2022-08-19T06:16:40;100114.13;;;21.14;82.01
16355;BME280;8287;51.644;8.494;2022-08-19T06:19:11;100113.41;;;21.24;81.36
16355;BME280;8287;51.644;8.494;2022-08-19T06:21:40;100115.75;;;21.29;81.03
16355;BME280;8287;51.644;8.494;2022-08-19T06:24:09;100114.94;;;21.25;81.45
16355;BME280;8287;51.644;8.494;2022-08-19T06:26:40;100112.25;;;21.28;81.04
16355;BME280;8287;51.644;8.494;2022-08-19T06:29:09;100112.63;;;21.30;81.32
16355;BME280;8287;51.644;8.494;2022-08-19T06:31:36;100117.69;;;21.39;80.95
16355;BME280;8287;51.644;8.494;2022-08-19T06:34:05;100115.75;;;21.39;81.38
16355;BME280;8287;51.644;8.494;2022-08-19T06:36:33;100121.13;;;21.32;81.79
16355;BME280;8287;51.644;8.494;2022-08-19T06:39:02;100111.84;;;21.23;82.55
16355;BME280;8287;51.644;8.494;2022-08-19T06:41:29;100115.38;;;21.37;82.09
16355;BME280;8287;51.644;8.494;2022-08-19T06:43:57;100107.31;;;21.44;82.15
16355;BME280;8287;51.644;8.494;2022-08-19T06:46:25;100107.72;;;21.60;81.28
16355;BME280;8287;51.644;8.494;2022-08-19T06:48:53;100114.34;;;21.80;80.50
16355;BME280;8287;51.644;8.494;2022-08-19T06:51:20;100118.19;;;21.86;80.65
16355;BME280;8287;51.644;8.494;2022-08-19T06:53:48;100105.47;;;21.94;80.83
16355;BME280;8287;51.644;8.494;2022-08-19T06:56:20;100110.50;;;22.02;80.52
16355;BME280;8287;51.644;8.494;2022-08-19T06:58:47;100109.34;;;22.07;80.05
16355;BME280;8287;51.644;8.494;2022-08-19T07:01:20;100116.66;;;22.03;80.06
16355;BME280;8287;51.644;8.494;2022-08-19T07:03:46;100117.44;;;22.10;79.84
16355;BME280;8287;51.644;8.494;2022-08-19T07:06:15;100117.03;;;22.19;79.60
16355;BME280;8287;51.644;8.494;2022-08-19T07:08:43;100115.13;;;22.16;79.89
16355;BME280;8287;51.644;8.494;2022-08-19T07:11:12;100119.38;;;22.34;79.10
16355;BME280;8287;51.644;8.494;2022-08-19T07:13:40;100123.59;;;22.35;79.41
16355;BME280;8287;51.644;8.494;2022-08-19T07:16:11;100134.03;;;22.51;78.62
16355;BME280;8287;51.644;8.494;2022-08-19T07:18:39;100134.78;;;22.58;79.08
16355;BME280;8287;51.644;8.494;2022-08-19T07:21:08;100142.13;;;22.72;78.08
16355;BME280;8287;51.644;8.494;2022-08-19T07:23:35;100148.25;;;22.79;77.38
16355;BME280;8287;51.644;8.494;2022-08-19T07:26:05;100153.66;;;22.86;77.31
16355;BME280;8287;51.644;8.494;2022-08-19T07:28:32;100156.72;;;22.95;76.62
16355;BME280;8287;51.644;8.494;2022-08-19T07:30:59;100163.66;;;23.03;76.36
16355;BME280;8287;51.644;8.494;2022-08-19T07:33:27;100164.41;;;23.14;76.25
16355;BME280;8287;51.644;8.494;2022-08-19T07:35:56;100170.16;;;23.23;75.94
16355;BME280;8287;51.644;8.494;2022-08-19T07:38:23;100168.25;;;23.06;75.92
16355;BME280;8287;51.644;8.494;2022-08-19T07:40:50;100176.72;;;23.12;75.97
16355;BME280;8287;51.644;8.494;2022-08-19T07:43:17;100183.31;;;23.14;75.55
16355;BME280;8287;51.644;8.494;2022-08-19T07:45:45;100182.16;;;23.05;75.91
16355;BME280;8287;51.644;8.494;2022-08-19T07:48:12;100181.00;;;23.20;75.73
16355;BME280;8287;51.644;8.494;2022-08-19T07:50:39;100177.09;;;23.24;75.46
16355;BME280;8287;51.644;8.494;2022-08-19T07:53:07;100172.06;;;23.33;75.51
16355;BME280;8287;51.644;8.494;2022-08-19T07:55:34;100185.91;;;23.46;74.52
16355;BME280;8287;51.644;8.494;2022-08-19T07:58:00;100192.09;;;23.46;74.41
16355;BME280;8287;51.644;8.494;2022-08-19T08:00:27;100190.56;;;23.45;74.47
16355;BME280;8287;51.644;8.494;2022-08-19T08:02:54;100193.22;;;23.56;74.15
16355;BME280;8287;51.644;8.494;2022-08-19T08:05:20;100185.44;;;23.68;74.25
16355;BME280;8287;51.644;8.494;2022-08-19T08:08:04;100192.72;;;23.85;73.38
16355;BME280;8287;51.644;8.494;2022-08-19T08:10:50;100182.59;;;23.96;72.91
16355;BME280;8287;51.644;8.494;2022-08-19T08:13:17;100192.56;;;24.06;72.54
16355;BME280;8287;51.644;8.494;2022-08-19T08:15:43;100182.50;;;24.10;72.76
16355;BME280;8287;51.644;8.494;2022-08-19T08:18:10;100179.31;;;24.22;72.00
16355;BME280;8287;51.644;8.494;2022-08-19T08:20:37;100190.41;;;24.38;71.59
16355;BME280;8287;51.644;8.494;2022-08-19T08:23:04;100186.47;;;24.46;71.01
16355;BME280;8287;51.644;8.494;2022-08-19T08:25:52;100186.00;;;24.58;70.87
16355;BME280;8287;51.644;8.494;2022-08-19T08:28:20;100183.59;;;24.67;69.75
16355;BME280;8287;51.644;8.494;2022-08-19T08:30:47;100184.13;;;24.88;69.69
16355;BME280;8287;51.644;8.494;2022-08-19T08:33:17;100185.50;;;25.07;69.22
16355;BME280;8287;51.644;8.494;2022-08-19T08:35:44;100176.84;;;25.19;68.01
16355;BME280;8287;51.644;8.494;2022-08-19T08:38:11;100186.41;;;25.30;67.78
16355;BME280;8287;51.644;8.494;2022-08-19T08:40:43;100183.31;;;24.95;67.04
16355;BME280;8287;51.644;8.494;2022-08-19T08:43:19;100182.47;;;25.01;68.26
16355;BME280;8287;51.644;8.494;2022-08-19T08:45:52;100189.25;;;25.20;67.21
16355;BME280;8287;51.644;8.494;2022-08-19T08:48:23;100200.00;;;25.27;66.80
16355;BME280;8287;51.644;8.494;2022-08-19T08:50:52;100201.94;;;25.30;66.76
16355;BME280;8287;51.644;8.494;2022-08-19T08:53:21;100195.69;;;25.33;65.88
16355;BME280;8287;51.644;8.494;2022-08-19T08:55:48;100197.22;;;25.34;65.83
16355;BME280;8287;51.644;8.494;2022-08-19T08:58:21;100189.75;;;25.45;65.21
16355;BME280;8287;51.644;8.494;2022-08-19T09:00:50;100194.97;;;25.59;64.99
16355;BME280;8287;51.644;8.494;2022-08-19T09:03:20;100200.28;;;25.69;63.91
16355;BME280;8287;51.644;8.494;2022-08-19T09:05:56;100196.41;;;25.67;64.77
16355;BME280;8287;51.644;8.494;2022-08-19T09:08:34;100201.41;;;25.72;64.77
16355;BME280;8287;51.644;8.494;2022-08-19T09:11:07;100198.06;;;25.31;66.15
16355;BME280;8287;51.644;8.494;2022-08-19T09:13:42;100197.72;;;25.25;65.63
16355;BME280;8287;51.644;8.494;2022-08-19T09:16:14;100186.66;;;25.73;66.02
16355;BME280;8287;51.644;8.494;2022-08-19T09:18:43;100188.06;;;26.11;63.35
16355;BME280;8287;51.644;8.494;2022-08-19T09:21:11;100183.53;;;26.27;62.88
16355;BME280;8287;51.644;8.494;2022-08-19T09:23:38;100186.28;;;26.01;61.75
16355;BME280;8287;51.644;8.494;2022-08-19T09:26:10;100183.50;;;26.31;61.48
16355;BME280;8287;51.644;8.494;2022-08-19T09:28:40;100184.53;;;26.14;62.01
16355;BME280;8287;51.644;8.494;2022-08-19T09:31:09;100180.72;;;26.34;61.63
16355;BME280;8287;51.644;8.494;2022-08-19T09:33:35;100178.44;;;26.56;60.42
16355;BME280;8287;51.644;8.494;2022-08-19T09:36:05;100177.34;;;26.73;61.15
16355;BME280;8287;51.644;8.494;2022-08-19T09:38:32;100178.66;;;26.88;59.99
16355;BME280;8287;51.644;8.494;2022-08-19T09:41:03;100177.09;;;27.06;60.08
16355;BME280;8287;51.644;8.494;2022-08-19T09:43:30;100172.88;;;27.25;57.98
16355;BME280;8287;51.644;8.494;2022-08-19T09:45:57;100180.31;;;27.24;58.14
16355;BME280;8287;51.644;8.494;2022-08-19T09:48:25;100182.06;;;27.11;57.08
16355;BME280;8287;51.644;8.494;2022-08-19T09:50:52;100175.56;;;27.05;58.24
16355;BME280;8287;51.644;8.494;2022-08-19T09:53:19;100177.88;;;27.07;58.16
16355;BME280;8287;51.644;8.494;2022-08-19T09:55:48;100181.25;;;26.95;57.80
16355;BME280;8287;51.644;8.494;2022-08-19T09:58:14;100180.41;;;26.98;57.77
16355;BME280;8287;51.644;8.494;2022-08-19T10:00:41;100175.41;;;27.16;58.88
16355;BME280;8287;51.644;8.494;2022-08-19T10:03:09;100184.38;;;27.32;58.62
16355;BME280;8287;51.644;8.494;2022-08-19T10:05:36;100179.44;;;27.27;59.16
16355;BME280;8287;51.644;8.494;2022-08-19T10:08:17;100171.41;;;27.59;56.01
16355;BME280;8287;51.644;8.494;2022-08-19T10:10:44;100184.81;;;27.50;55.22
16355;BME280;8287;51.644;8.494;2022-08-19T10:13:11;100186.28;;;27.55;55.98
16355;BME280;8287;51.644;8.494;2022-08-19T10:15:38;100184.34;;;27.16;56.96
16355;BME280;8287;51.644;8.494;2022-08-19T10:18:06;100183.72;;;27.28;56.90
16355;BME280;8287;51.644;8.494;2022-08-19T10:20:36;100185.81;;;27.21;56.65
16355;BME280;8287;51.644;8.494;2022-08-19T10:23:03;100174.69;;;27.12;57.55
16355;BME280;8287;51.644;8.494;2022-08-19T10:25:29;100178.78;;;27.00;56.09
16355;BME280;8287;51.644;8.494;2022-08-19T10:27:59;100176.13;;;26.97;55.91
16355;BME280;8287;51.644;8.494;2022-08-19T10:30:25;100162.88;;;26.99;56.12
16355;BME280;8287;51.644;8.494;2022-08-19T10:32:52;100164.78;;;27.21;55.78
16355;BME280;8287;51.644;8.494;2022-08-19T10:35:19;100156.97;;;27.43;55.22
16355;BME280;8287;51.644;8.494;2022-08-19T10:37:47;100155.72;;;27.63;53.98
16355;BME280;8287;51.644;8.494;2022-08-19T10:40:14;100151.47;;;27.82;54.92
16355;BME280;8287;51.644;8.494;2022-08-19T10:42:41;100150.44;;;27.92;54.72
16355;BME280;8287;51.644;8.494;2022-08-19T10:45:09;100148.94;;;27.71;56.39
16355;BME280;8287;51.644;8.494;2022-08-19T10:47:36;100156.28;;;27.39;54.24
16355;BME280;8287;51.644;8.494;2022-08-19T10:50:04;100154.50;;;27.48;54.82
16355;BME280;8287;51.644;8.494;2022-08-19T10:52:49;100163.50;;;27.65;53.29
16355;BME280;8287;51.644;8.494;2022-08-19T10:55:18;100151.81;;;27.84;53.04
16355;BME280;8287;51.644;8.494;2022-08-19T10:58:02;100144.41;;;28.00;50.40
16355;BME280;8287;51.644;8.494;2022-08-19T11:00:29;100140.75;;;28.07;49.39
16355;BME280;8287;51.644;8.494;2022-08-19T11:02:57;100139.56;;;27.92;50.04
16355;BME280;8287;51.644;8.494;2022-08-19T11:05:24;100135.06;;;28.17;51.55
16355;BME280;8287;51.644;8.494;2022-08-19T11:07:52;100134.84;;;28.56;51.79
16355;BME280;8287;51.644;8.494;2022-08-19T11:10:19;100127.19;;;28.51;49.99
16355;BME280;8287;51.644;8.494;2022-08-19T11:12:45;100132.13;;;28.24;51.10
16355;BME280;8287;51.644;8.494;2022-08-19T11:15:13;100128.66;;;28.39;48.50
16355;BME280;8287;51.644;8.494;2022-08-19T11:17:40;100125.91;;;28.55;49.09
16355;BME280;8287;51.644;8.494;2022-08-19T11:20:10;100115.66;;;28.88;49.40
16355;BME280;8287;51.644;8.494;2022-08-19T11:22:37;100118.44;;;28.72;49.46
16355;BME280;8287;51.644;8.494;2022-08-19T11:25:08;100112.28;;;29.25;50.25
16355;BME280;8287;51.644;8.494;2022-08-19T11:27:38;100118.94;;;29.36;48.15
16355;BME280;8287;51.644;8.494;2022-08-19T11:30:08;100123.06;;;28.87;50.92
16355;BME280;8287;51.644;8.494;2022-08-19T11:32:35;100116.53;;;28.85;50.61
16355;BME280;8287;51.644;8.494;2022-08-19T11:35:01;100119.38;;;29.22;48.36
16355;BME280;8287;51.644;8.494;2022-08-19T11:37:28;100117.31;;;29.26;48.12
16355;BME280;8287;51.644;8.494;2022-08-19T11:39:55;100119.44;;;28.49;47.64
16355;BME280;8287;51.644;8.494;2022-08-19T11:42:23;100112.63;;;28.25;50.32
16355;BME280;8287;51.644;8.494;2022-08-19T11:45:07;100116.88;;;28.26;50.13
16355;BME280;8287;51.644;8.494;2022-08-19T11:47:35;100113.97;;;28.33;50.14
16355;BME280;8287;51.644;8.494;2022-08-19T11:50:04;100108.81;;;28.39;49.60
16355;BME280;8287;51.644;8.494;2022-08-19T11:52:32;100120.41;;;28.71;48.62
16355;BME280;8287;51.644;8.494;2022-08-19T11:55:01;100119.03;;;28.19;49.10
16355;BME280;8287;51.644;8.494;2022-08-19T11:57:29;100108.94;;;28.92;48.92
16355;BME280;8287;51.644;8.494;2022-08-19T11:59:56;100110.13;;;29.32;47.90
16355;BME280;8287;51.644;8.494;2022-08-19T12:02:22;100104.34;;;29.30;47.99
16355;BME280;8287;51.644;8.494;2022-08-19T12:04:49;100102.25;;;29.34;47.83
16355;BME280;8287;51.644;8.494;2022-08-19T12:07:16;100107.38;;;29.32;45.88
16355;BME280;8287;51.644;8.494;2022-08-19T12:09:42;100110.66;;;29.40;47.75
16355;BME280;8287;51.644;8.494;2022-08-19T12:12:09;100102.81;;;29.54;46.80
16355;BME280;8287;51.644;8.494;2022-08-19T12:14:37;100098.09;;;28.89;46.94
16355;BME280;8287;51.644;8.494;2022-08-19T12:17:04;100097.19;;;29.20;47.30
16355;BME280;8287;51.644;8.494;2022-08-19T12:19:33;100097.34;;;28.88;47.84
16355;BME280;8287;51.644;8.494;2022-08-19T12:22:01;100097.91;;;29.49;46.10
16355;BME280;8287;51.644;8.494;2022-08-19T12:24:30;100104.25;;;29.46;47.32
16355;BME280;8287;51.644;8.494;2022-08-19T12:26:58;100100.84;;;29.92;45.32
16355;BME280;8287;51.644;8.494;2022-08-19T12:29:27;100092.00;;;30.13;43.16
16355;BME280;8287;51.644;8.494;2022-08-19T12:31:57;100093.72;;;30.20;44.14
16355;BME280;8287;51.644;8.494;2022-08-19T12:34:27;100080.63;;;29.90;42.86
16355;BME280;8287;51.644;8.494;2022-08-19T12:36:58;100080.41;;;30.09;42.44
16355;BME280;8287;51.644;8.494;2022-08-19T12:39:25;100092.91;;;30.32;41.98
16355;BME280;8287;51.644;8.494;2022-08-19T12:41:52;100085.19;;;30.52;42.30
16355;BME280;8287;51.644;8.494;2022-08-19T12:44:19;100074.06;;;30.34;42.53
16355;BME280;8287;51.644;8.494;2022-08-19T12:46:46;100081.75;;;30.60;42.41
16355;BME280;8287;51.644;8.494;2022-08-19T12:49:15;100061.34;;;30.74;40.25
16355;BME280;8287;51.644;8.494;2022-08-19T12:51:42;100065.34;;;30.82;39.24
16355;BME280;8287;51.644;8.494;2022-08-19T12:54:09;100070.03;;;31.03;39.86
16355;BME280;8287;51.644;8.494;2022-08-19T12:56:36;100052.16;;;31.11;40.03
16355;BME280;8287;51.644;8.494;2022-08-19T12:59:06;100044.22;;;30.61;40.62
16355;BME280;8287;51.644;8.494;2022-08-19T13:01:33;100046.19;;;31.12;41.77
16355;BME280;8287;51.644;8.494;2022-08-19T13:04:00;100048.63;;;31.10;42.71
16355;BME280;8287;51.644;8.494;2022-08-19T13:06:28;100052.19;;;31.50;40.23